sensor_id;sensor_type;location;lat;lon;timestamp;temperature;humidity
2873;DHT22;1444;49.166;7.312;2023-06-19T00:01:57;21.60;95.60
2873;DHT22;1444;49.166;7.312;2023-06-19T00:04:24;19.80;96.20
2873;DHT22;1444;49.166;7.312;2023-06-19T00:06:52;21.00;97.50
2873;DHT22;1444;49.166;7.312;2023-06-19T00:09:20;20.90;97.80
2873;DHT22;1444;49.166;7.312;2023-06-19T00:11:47;20.90;98.20
2873;DHT22;1444;49.166;7.312;2023-06-19T00:14:13;20.90;98.40
2873;DHT22;1444;49.166;7.312;2023-06-19T00:16:40;20.90;98.40
2873;DHT22;1444;49.166;7.312;2023-06-19T00:19:07;20.80;98.50
2873;DHT22;1444;49.166;7.312;2023-06-19T00:21:34;20.80;98.70
2873;DHT22;1444;49.166;7.312;2023-06-19T00:24:01;20.80;98.70
2873;DHT22;1444;49.166;7.312;2023-06-19T00:26:29;20.80;98.90
2873;DHT22;1444;49.166;7.312;2023-06-19T00:28:56;20.80;99.00
2873;DHT22;1444;49.166;7.312;2023-06-19T00:31:24;20.70;99.20
2873;DHT22;1444;49.166;7.312;2023-06-19T00:33:52;20.60;98.90
2873;DHT22;1444;49.166;7.312;2023-06-19T00:36:19;20.50;98.60
2873;DHT22;1444;49.166;7.312;2023-06-19T00:38:47;20.50;98.60
2873;DHT22;1444;49.166;7.312;2023-06-19T00:41:15;20.70;98.60
2873;DHT22;1444;49.166;7.312;2023-06-19T00:43:43;20.70;98.40
2873;DHT22;1444;49.166;7.312;2023-06-19T00:46:11;20.70;98.30
2873;DHT22;1444;49.166;7.312;2023-06-19T00:48:38;20.70;98.20
2873;DHT22;1444;49.166;7.312;2023-06-19T00:51:06;20.60;98.40
2873;DHT22;1444;49.166;7.312;2023-06-19T00:53:33;20.70;98.70
2873;DHT22;1444;49.166;7.312;2023-06-19T00:56:00;20.70;98.40
2873;DHT22;1444;49.166;7.312;2023-06-19T00:58:28;20.80;98.50
2873;DHT22;1444;49.166;7.312;2023-06-19T01:00:57;20.80;98.70
2873;DHT22;1444;49.166;7.312;2023-06-19T01:03:24;20.80;99.00
2873;DHT22;1444;49.166;7.312;2023-06-19T01:05:53;20.70;99.10
2873;DHT22;1444;49.166;7.312;2023-06-19T01:08:34;20.60;99.20
2873;DHT22;1444;49.166;7.312;2023-06-19T01:11:04;20.70;99.10
2873;DHT22;1444;49.166;7.312;2023-06-19T01:13:34;20.80;99.00
2873;DHT22;1444;49.166;7.312;2023-06-19T01:16:06;20.90;99.00
2873;DHT22;1444;49.166;7.312;2023-06-19T01:18:33;20.90;98.90
2873;DHT22;1444;49.166;7.312;2023-06-19T01:21:11;20.90;99.00
2873;DHT22;1444;49.166;7.312;2023-06-19T01:23:40;20.80;99.30
2873;DHT22;1444;49.166;7.312;2023-06-19T01:26:07;20.80;99.40
2873;DHT22;1444;49.166;7.312;2023-06-19T01:28:34;20.70;99.70
2873;DHT22;1444;49.166;7.312;2023-06-19T01:31:04;20.60;99.90
2873;DHT22;1444;49.166;7.312;2023-06-19T01:33:33;20.40;99.90
2873;DHT22;1444;49.166;7.312;2023-06-19T01:36:02;20.30;99.90
2873;DHT22;1444;49.166;7.312;2023-06-19T01:38:31;20.20;99.90
2873;DHT22;1444;49.166;7.312;2023-06-19T01:41:00;20.10;99.90
2873;DHT22;1444;49.166;7.312;2023-06-19T01:43:28;20.10;99.90
2873;DHT22;1444;49.166;7.312;2023-06-19T01:45:56;20.10;99.90
2873;DHT22;1444;49.166;7.312;2023-06-19T01:48:23;20.10;99.90
2873;DHT22;1444;49.166;7.312;2023-06-19T01:50:51;20.20;99.90
2873;DHT22;1444;49.166;7.312;2023-06-19T01:53:18;20.30;99.90
2873;DHT22;1444;49.166;7.312;2023-06-19T01:55:44;20.50;99.60
2873;DHT22;1444;49.166;7.312;2023-06-19T01:58:13;20.50;99.70
2873;DHT22;1444;49.166;7.312;2023-06-19T02:00:39;20.50;99.80
2873;DHT22;1444;49.166;7.312;2023-06-19T02:03:06;20.30;99.90
2873;DHT22;1444;49.166;7.312;2023-06-19T02:05:33;20.20;99.90
2873;DHT22;1444;49.166;7.312;2023-06-19T02:08:04;20.10;99.90
2873;DHT22;1444;49.166;7.312;2023-06-19T02:10:31;20.10;99.90
2873;DHT22;1444;49.166;7.312;2023-06-19T02:12:58;20.00;99.90
2873;DHT22;1444;49.166;7.312;2023-06-19T02:15:26;20.00;99.90
2873;DHT22;1444;49.166;7.312;2023-06-19T02:17:55;19.90;99.90
2873;DHT22;1444;49.166;7.312;2023-06-19T02:20:22;19.90;99.90
2873;DHT22;1444;49.166;7.312;2023-06-19T02:22:50;19.90;99.90
2873;DHT22;1444;49.166;7.312;2023-06-19T02:25:17;19.80;99.90
2873;DHT22;1444;49.166;7.312;2023-06-19T02:27:44;19.70;99.90
2873;DHT22;1444;49.166;7.312;2023-06-19T02:30:12;19.70;99.90
2873;DHT22;1444;49.166;7.312;2023-06-19T02:32:40;19.80;99.90
2873;DHT22;1444;49.166;7.312;2023-06-19T02:35:09;19.70;99.90
2873;DHT22;1444;49.166;7.312;2023-06-19T02:37:36;20.00;99.90
2873;DHT22;1444;49.166;7.312;2023-06-19T02:40:03;19.70;99.90
2873;DHT22;1444;49.166;7.312;2023-06-19T02:42:31;19.60;99.90
2873;DHT22;1444;49.166;7.312;2023-06-19T02:44:58;19.60;99.90
2873;DHT22;1444;49.166;7.312;2023-06-19T02:47:29;18.70;99.90
2873;DHT22;1444;49.166;7.312;2023-06-19T02:49:57;19.60;99.90
2873;DHT22;1444;49.166;7.312;2023-06-19T02:52:25;19.70;99.90
2873;DHT22;1444;49.166;7.312;2023-06-19T02:54:52;19.70;99.90
2873;DHT22;1444;49.166;7.312;2023-06-19T02:57:19;19.70;99.90
2873;DHT22;1444;49.166;7.312;2023-06-19T02:59:46;19.60;99.90
2873;DHT22;1444;49.166;7.312;2023-06-19T03:02:12;19.60;99.90
2873;DHT22;1444;49.166;7.312;2023-06-19T03:04:40;19.60;99.90
2873;DHT22;1444;49.166;7.312;2023-06-19T03:07:08;19.60;99.90
2873;DHT22;1444;49.166;7.312;2023-06-19T03:09:35;19.60;99.90
2873;DHT22;1444;49.166;7.312;2023-06-19T03:12:03;19.70;99.90
2873;DHT22;1444;49.166;7.312;2023-06-19T03:14:30;19.60;99.90
2873;DHT22;1444;49.166;7.312;2023-06-19T03:16:57;19.60;99.90
2873;DHT22;1444;49.166;7.312;2023-06-19T03:19:24;19.70;99.90
2873;DHT22;1444;49.166;7.312;2023-06-19T03:21:50;19.70;99.90
2873;DHT22;1444;49.166;7.312;2023-06-19T03:24:18;19.70;99.90
2873;DHT22;1444;49.166;7.312;2023-06-19T03:26:45;19.70;99.90
2873;DHT22;1444;49.166;7.312;2023-06-19T03:29:12;19.60;99.90
2873;DHT22;1444;49.166;7.312;2023-06-19T03:31:39;19.60;99.90
2873;DHT22;1444;49.166;7.312;2023-06-19T03:34:06;19.60;99.90
2873;DHT22;1444;49.166;7.312;2023-06-19T03:36:33;19.60;99.90
2873;DHT22;1444;49.166;7.312;2023-06-19T03:39:00;19.80;99.90
2873;DHT22;1444;49.166;7.312;2023-06-19T03:41:28;19.80;99.90
2873;DHT22;1444;49.166;7.312;2023-06-19T03:43:55;19.90;99.90
2873;DHT22;1444;49.166;7.312;2023-06-19T03:46:22;19.80;99.90
2873;DHT22;1444;49.166;7.312;2023-06-19T03:48:49;19.90;99.90
2873;DHT22;1444;49.166;7.312;2023-06-19T03:51:16;19.90;99.90
2873;DHT22;1444;49.166;7.312;2023-06-19T03:53:42;19.70;99.90
2873;DHT22;1444;49.166;7.312;2023-06-19T03:56:09;19.70;99.90
2873;DHT22;1444;49.166;7.312;2023-06-19T03:58:37;19.70;99.90
2873;DHT22;1444;49.166;7.312;2023-06-19T04:01:04;19.80;99.90
2873;DHT22;1444;49.166;7.312;2023-06-19T04:03:31;19.80;99.90
2873;DHT22;1444;49.166;7.312;2023-06-19T04:05:58;19.80;99.90
2873;DHT22;1444;49.166;7.312;2023-06-19T04:08:25;19.70;99.90
2873;DHT22;1444;49.166;7.312;2023-06-19T04:10:52;19.70;99.90
2873;DHT22;1444;49.166;7.312;2023-06-19T04:13:19;19.70;99.90
2873;DHT22;1444;49.166;7.312;2023-06-19T04:15:47;19.70;99.90
2873;DHT22;1444;49.166;7.312;2023-06-19T04:18:14;19.80;99.90
2873;DHT22;1444;49.166;7.312;2023-06-19T04:20:41;20.00;99.90
2873;DHT22;1444;49.166;7.312;2023-06-19T04:23:07;20.20;99.90
2873;DHT22;1444;49.166;7.312;2023-06-19T04:29:02;20.30;99.90
2873;DHT22;1444;49.166;7.312;2023-06-19T04:31:33;20.30;99.90
2873;DHT22;1444;49.166;7.312;2023-06-19T04:34:06;20.20;99.90
2873;DHT22;1444;49.166;7.312;2023-06-19T04:36:33;20.30;99.90
2873;DHT22;1444;49.166;7.312;2023-06-19T04:38:59;20.20;99.90
2873;DHT22;1444;49.166;7.312;2023-06-19T04:41:26;20.10;99.90
2873;DHT22;1444;49.166;7.312;2023-06-19T04:43:53;20.10;99.90
2873;DHT22;1444;49.166;7.312;2023-06-19T04:46:20;20.10;99.90
2873;DHT22;1444;49.166;7.312;2023-06-19T04:48:48;20.10;99.90
2873;DHT22;1444;49.166;7.312;2023-06-19T04:51:16;20.00;99.90
2873;DHT22;1444;49.166;7.312;2023-06-19T04:53:45;20.10;99.90
2873;DHT22;1444;49.166;7.312;2023-06-19T04:56:12;20.10;99.90
2873;DHT22;1444;49.166;7.312;2023-06-19T04:58:39;20.10;99.90
2873;DHT22;1444;49.166;7.312;2023-06-19T05:01:11;20.10;99.90
2873;DHT22;1444;49.166;7.312;2023-06-19T05:03:39;20.20;99.90
2873;DHT22;1444;49.166;7.312;2023-06-19T05:06:07;20.10;99.90
2873;DHT22;1444;49.166;7.312;2023-06-19T05:08:34;20.30;99.90
2873;DHT22;1444;49.166;7.312;2023-06-19T05:11:01;20.30;99.90
2873;DHT22;1444;49.166;7.312;2023-06-19T05:13:28;20.40;99.90
2873;DHT22;1444;49.166;7.312;2023-06-19T05:15:54;20.40;99.90
2873;DHT22;1444;49.166;7.312;2023-06-19T05:18:22;20.30;99.90
2873;DHT22;1444;49.166;7.312;2023-06-19T05:20:49;20.30;99.90
2873;DHT22;1444;49.166;7.312;2023-06-19T05:23:17;20.40;99.90
2873;DHT22;1444;49.166;7.312;2023-06-19T05:25:44;20.40;99.90
2873;DHT22;1444;49.166;7.312;2023-06-19T05:28:11;20.50;99.90
2873;DHT22;1444;49.166;7.312;2023-06-19T05:30:37;20.60;99.90
2873;DHT22;1444;49.166;7.312;2023-06-19T05:33:04;20.60;99.90
2873;DHT22;1444;49.166;7.312;2023-06-19T05:35:31;20.70;99.90
2873;DHT22;1444;49.166;7.312;2023-06-19T05:37:58;20.80;99.90
2873;DHT22;1444;49.166;7.312;2023-06-19T05:40:26;20.80;99.90
2873;DHT22;1444;49.166;7.312;2023-06-19T05:45:22;21.00;99.90
2873;DHT22;1444;49.166;7.312;2023-06-19T05:47:49;21.00;99.90
2873;DHT22;1444;49.166;7.312;2023-06-19T05:50:16;20.90;99.90
2873;DHT22;1444;49.166;7.312;2023-06-19T05:52:42;20.90;99.90
2873;DHT22;1444;49.166;7.312;2023-06-19T05:55:09;21.00;99.90
2873;DHT22;1444;49.166;7.312;2023-06-19T05:57:38;21.10;99.90
2873;DHT22;1444;49.166;7.312;2023-06-19T06:00:05;21.00;99.90
2873;DHT22;1444;49.166;7.312;2023-06-19T06:02:36;20.90;99.90
2873;DHT22;1444;49.166;7.312;2023-06-19T06:05:04;20.80;99.90
2873;DHT22;1444;49.166;7.312;2023-06-19T06:07:31;20.80;99.90
2873;DHT22;1444;49.166;7.312;2023-06-19T06:09:57;21.10;99.90
2873;DHT22;1444;49.166;7.312;2023-06-19T06:12:24;20.70;99.90
2873;DHT22;1444;49.166;7.312;2023-06-19T06:14:52;20.70;99.90
2873;DHT22;1444;49.166;7.312;2023-06-19T06:17:19;20.90;99.90
2873;DHT22;1444;49.166;7.312;2023-06-19T06:19:46;20.90;99.90
2873;DHT22;1444;49.166;7.312;2023-06-19T06:22:13;21.00;99.90
2873;DHT22;1444;49.166;7.312;2023-06-19T06:24:40;21.00;99.90
2873;DHT22;1444;49.166;7.312;2023-06-19T06:27:06;21.00;99.90
2873;DHT22;1444;49.166;7.312;2023-06-19T06:29:33;21.10;99.90
2873;DHT22;1444;49.166;7.312;2023-06-19T06:32:07;21.10;99.90
2873;DHT22;1444;49.166;7.312;2023-06-19T06:34:34;21.10;99.90
2873;DHT22;1444;49.166;7.312;2023-06-19T06:37:02;21.10;99.90
2873;DHT22;1444;49.166;7.312;2023-06-19T06:39:30;21.00;99.90
2873;DHT22;1444;49.166;7.312;2023-06-19T06:41:57;21.10;99.90
2873;DHT22;1444;49.166;7.312;2023-06-19T06:44:24;21.20;99.90
2873;DHT22;1444;49.166;7.312;2023-06-19T06:46:50;21.20;99.90
2873;DHT22;1444;49.166;7.312;2023-06-19T06:49:19;21.20;99.90
2873;DHT22;1444;49.166;7.312;2023-06-19T06:51:45;21.20;99.90
2873;DHT22;1444;49.166;7.312;2023-06-19T06:54:13;21.20;99.90
2873;DHT22;1444;49.166;7.312;2023-06-19T06:56:39;21.10;99.90
2873;DHT22;1444;49.166;7.312;2023-06-19T06:59:06;21.20;99.90
2873;DHT22;1444;49.166;7.312;2023-06-19T07:01:33;21.10;99.90
2873;DHT22;1444;49.166;7.312;2023-06-19T07:04:00;21.10;99.90
2873;DHT22;1444;49.166;7.312;2023-06-19T07:06:29;21.10;99.90
2873;DHT22;1444;49.166;7.312;2023-06-19T07:08:55;21.10;99.90
2873;DHT22;1444;49.166;7.312;2023-06-19T07:11:22;21.30;99.90
2873;DHT22;1444;49.166;7.312;2023-06-19T07:13:49;21.50;99.90
2873;DHT22;1444;49.166;7.312;2023-06-19T07:16:16;21.60;99.90
2873;DHT22;1444;49.166;7.312;2023-06-19T07:18:43;21.70;99.90
2873;DHT22;1444;49.166;7.312;2023-06-19T07:21:12;21.90;99.90
2873;DHT22;1444;49.166;7.312;2023-06-19T07:23:41;22.00;99.90
2873;DHT22;1444;49.166;7.312;2023-06-19T07:26:08;22.10;99.90
2873;DHT22;1444;49.166;7.312;2023-06-19T07:28:35;22.30;99.90
2873;DHT22;1444;49.166;7.312;2023-06-19T07:31:02;22.30;99.90
2873;DHT22;1444;49.166;7.312;2023-06-19T07:33:29;22.40;99.90
2873;DHT22;1444;49.166;7.312;2023-06-19T07:35:56;22.50;99.90
2873;DHT22;1444;49.166;7.312;2023-06-19T07:38:23;22.50;99.90
2873;DHT22;1444;49.166;7.312;2023-06-19T07:40:51;22.80;99.90
2873;DHT22;1444;49.166;7.312;2023-06-19T07:43:18;22.60;99.90
2873;DHT22;1444;49.166;7.312;2023-06-19T07:45:45;22.70;99.90
2873;DHT22;1444;49.166;7.312;2023-06-19T07:48:11;22.80;99.90
2873;DHT22;1444;49.166;7.312;2023-06-19T07:50:38;22.90;99.90
2873;DHT22;1444;49.166;7.312;2023-06-19T07:53:05;22.80;99.90
2873;DHT22;1444;49.166;7.312;2023-06-19T07:55:32;22.80;99.90
2873;DHT22;1444;49.166;7.312;2023-06-19T07:58:02;23.10;99.90
2873;DHT22;1444;49.166;7.312;2023-06-19T08:00:28;23.20;99.60
2873;DHT22;1444;49.166;7.312;2023-06-19T08:02:56;23.40;99.90
2873;DHT22;1444;49.166;7.312;2023-06-19T08:05:23;23.60;99.80
2873;DHT22;1444;49.166;7.312;2023-06-19T08:07:49;23.80;99.40
2873;DHT22;1444;49.166;7.312;2023-06-19T08:10:16;23.90;98.50
2873;DHT22;1444;49.166;7.312;2023-06-19T08:12:44;24.00;98.00
2873;DHT22;1444;49.166;7.312;2023-06-19T08:15:12;24.00;98.30
2873;DHT22;1444;49.166;7.312;2023-06-19T08:17:40;24.10;97.70
2873;DHT22;1444;49.166;7.312;2023-06-19T08:20:08;24.00;97.40
2873;DHT22;1444;49.166;7.312;2023-06-19T08:22:35;24.30;97.60
2873;DHT22;1444;49.166;7.312;2023-06-19T08:25:02;24.40;96.70
2873;DHT22;1444;49.166;7.312;2023-06-19T08:27:29;24.40;96.60
2873;DHT22;1444;49.166;7.312;2023-06-19T08:29:56;24.30;96.10
2873;DHT22;1444;49.166;7.312;2023-06-19T08:32:24;24.20;96.30
2873;DHT22;1444;49.166;7.312;2023-06-19T08:34:52;24.10;96.10
2873;DHT22;1444;49.166;7.312;2023-06-19T08:37:19;24.00;96.10
2873;DHT22;1444;49.166;7.312;2023-06-19T08:39:45;24.00;96.20
2873;DHT22;1444;49.166;7.312;2023-06-19T08:42:12;24.30;96.70
2873;DHT22;1444;49.166;7.312;2023-06-19T08:44:39;24.50;96.50
2873;DHT22;1444;49.166;7.312;2023-06-19T08:47:07;24.70;97.10
2873;DHT22;1444;49.166;7.312;2023-06-19T08:49:35;24.90;97.00
2873;DHT22;1444;49.166;7.312;2023-06-19T08:52:03;25.00;96.20
2873;DHT22;1444;49.166;7.312;2023-06-19T08:54:30;24.80;95.60
2873;DHT22;1444;49.166;7.312;2023-06-19T08:57:00;24.90;95.80
2873;DHT22;1444;49.166;7.312;2023-06-19T08:59:27;25.10;95.20
2873;DHT22;1444;49.166;7.312;2023-06-19T09:01:55;25.20;94.80
2873;DHT22;1444;49.166;7.312;2023-06-19T09:04:23;25.30;95.50
2873;DHT22;1444;49.166;7.312;2023-06-19T09:06:54;25.30;95.30
2873;DHT22;1444;49.166;7.312;2023-06-19T09:09:22;25.40;94.50
2873;DHT22;1444;49.166;7.312;2023-06-19T09:12:00;25.50;94.30
2873;DHT22;1444;49.166;7.312;2023-06-19T09:14:34;25.50;94.10
2873;DHT22;1444;49.166;7.312;2023-06-19T09:17:01;25.40;94.60
2873;DHT22;1444;49.166;7.312;2023-06-19T09:19:28;25.50;94.70
2873;DHT22;1444;49.166;7.312;2023-06-19T09:22:01;25.40;94.70
2873;DHT22;1444;49.166;7.312;2023-06-19T09:24:34;25.40;94.00
2873;DHT22;1444;49.166;7.312;2023-06-19T09:27:11;25.60;94.60
2873;DHT22;1444;49.166;7.312;2023-06-19T09:29:40;25.60;94.40
2873;DHT22;1444;49.166;7.312;2023-06-19T09:32:17;25.60;94.10
2873;DHT22;1444;49.166;7.312;2023-06-19T09:34:45;25.60;94.50
2873;DHT22;1444;49.166;7.312;2023-06-19T09:37:13;25.70;94.50
2873;DHT22;1444;49.166;7.312;2023-06-19T09:42:08;25.90;93.30
2873;DHT22;1444;49.166;7.312;2023-06-19T09:44:40;25.70;92.90
2873;DHT22;1444;49.166;7.312;2023-06-19T09:49:47;26.10;93.40
2873;DHT22;1444;49.166;7.312;2023-06-19T09:52:16;26.00;92.90
2873;DHT22;1444;49.166;7.312;2023-06-19T09:54:46;26.00;93.10
2873;DHT22;1444;49.166;7.312;2023-06-19T09:57:13;26.10;92.20
2873;DHT22;1444;49.166;7.312;2023-06-19T09:59:41;26.20;92.70
2873;DHT22;1444;49.166;7.312;2023-06-19T10:02:08;26.40;93.20
2873;DHT22;1444;49.166;7.312;2023-06-19T10:04:43;26.40;92.40
2873;DHT22;1444;49.166;7.312;2023-06-19T10:07:20;26.40;92.40
2873;DHT22;1444;49.166;7.312;2023-06-19T10:09:57;26.70;92.10
2873;DHT22;1444;49.166;7.312;2023-06-19T10:12:37;26.90;91.70
2873;DHT22;1444;49.166;7.312;2023-06-19T10:15:09;26.90;91.50
2873;DHT22;1444;49.166;7.312;2023-06-19T10:17:37;27.10;91.50
2873;DHT22;1444;49.166;7.312;2023-06-19T10:20:05;26.90;91.80
2873;DHT22;1444;49.166;7.312;2023-06-19T10:22:51;26.90;92.00
2873;DHT22;1444;49.166;7.312;2023-06-19T10:25:21;27.00;91.70
2873;DHT22;1444;49.166;7.312;2023-06-19T10:27:48;27.10;91.90
2873;DHT22;1444;49.166;7.312;2023-06-19T10:30:18;27.30;91.60
2873;DHT22;1444;49.166;7.312;2023-06-19T10:32:45;27.20;91.10
2873;DHT22;1444;49.166;7.312;2023-06-19T10:35:13;27.30;90.60
2873;DHT22;1444;49.166;7.312;2023-06-19T10:37:41;27.30;90.10
2873;DHT22;1444;49.166;7.312;2023-06-19T10:40:10;27.60;92.10
2873;DHT22;1444;49.166;7.312;2023-06-19T10:42:38;27.50;90.80
2873;DHT22;1444;49.166;7.312;2023-06-19T10:45:07;27.70;90.90
2873;DHT22;1444;49.166;7.312;2023-06-19T10:47:35;27.80;90.30
2873;DHT22;1444;49.166;7.312;2023-06-19T10:52:29;28.00;90.50
2873;DHT22;1444;49.166;7.312;2023-06-19T10:54:57;27.90;90.70
2873;DHT22;1444;49.166;7.312;2023-06-19T10:57:28;27.80;90.00
2873;DHT22;1444;49.166;7.312;2023-06-19T10:59:55;28.00;90.10
2873;DHT22;1444;49.166;7.312;2023-06-19T11:02:24;28.20;88.40
2873;DHT22;1444;49.166;7.312;2023-06-19T11:04:52;28.60;88.70
2873;DHT22;1444;49.166;7.312;2023-06-19T11:07:20;28.50;88.60
2873;DHT22;1444;49.166;7.312;2023-06-19T11:09:48;28.80;88.10
2873;DHT22;1444;49.166;7.312;2023-06-19T11:12:20;29.10;89.30
2873;DHT22;1444;49.166;7.312;2023-06-19T11:14:47;29.10;86.10
2873;DHT22;1444;49.166;7.312;2023-06-19T11:17:14;29.30;87.10
2873;DHT22;1444;49.166;7.312;2023-06-19T11:19:41;29.10;83.00
2873;DHT22;1444;49.166;7.312;2023-06-19T11:22:10;29.30;86.50
2873;DHT22;1444;49.166;7.312;2023-06-19T11:24:37;29.50;85.90
2873;DHT22;1444;49.166;7.312;2023-06-19T11:27:04;29.80;83.10
2873;DHT22;1444;49.166;7.312;2023-06-19T11:29:34;29.90;85.10
2873;DHT22;1444;49.166;7.312;2023-06-19T11:32:06;30.20;84.90
2873;DHT22;1444;49.166;7.312;2023-06-19T11:34:34;30.40;86.00
2873;DHT22;1444;49.166;7.312;2023-06-19T11:37:02;30.40;83.00
2873;DHT22;1444;49.166;7.312;2023-06-19T11:39:31;30.00;80.80
2873;DHT22;1444;49.166;7.312;2023-06-19T11:41:58;29.80;82.90
2873;DHT22;1444;49.166;7.312;2023-06-19T11:44:25;29.60;83.40
2873;DHT22;1444;49.166;7.312;2023-06-19T11:46:56;29.90;82.80
2873;DHT22;1444;49.166;7.312;2023-06-19T11:49:24;29.70;81.50
2873;DHT22;1444;49.166;7.312;2023-06-19T11:51:51;29.70;83.00
2873;DHT22;1444;49.166;7.312;2023-06-19T11:54:19;29.60;84.40
2873;DHT22;1444;49.166;7.312;2023-06-19T11:56:46;29.40;83.80
2873;DHT22;1444;49.166;7.312;2023-06-19T11:59:14;29.10;82.10
2873;DHT22;1444;49.166;7.312;2023-06-19T12:01:41;28.90;83.30
2873;DHT22;1444;49.166;7.312;2023-06-19T12:04:09;29.00;84.00
2873;DHT22;1444;49.166;7.312;2023-06-19T12:06:36;29.00;85.80
2873;DHT22;1444;49.166;7.312;2023-06-19T12:09:03;28.40;83.30
2873;DHT22;1444;49.166;7.312;2023-06-19T12:11:31;28.40;83.30
2873;DHT22;1444;49.166;7.312;2023-06-19T12:13:57;28.20;86.60
2873;DHT22;1444;49.166;7.312;2023-06-19T12:16:24;28.00;87.50
2873;DHT22;1444;49.166;7.312;2023-06-19T12:18:53;27.70;87.80
2873;DHT22;1444;49.166;7.312;2023-06-19T12:21:21;27.60;87.30
2873;DHT22;1444;49.166;7.312;2023-06-19T12:23:48;27.50;86.80
2873;DHT22;1444;49.166;7.312;2023-06-19T12:26:15;27.40;87.60
2873;DHT22;1444;49.166;7.312;2023-06-19T12:28:41;27.40;88.90
2873;DHT22;1444;49.166;7.312;2023-06-19T12:31:08;27.30;89.00
2873;DHT22;1444;49.166;7.312;2023-06-19T12:33:35;27.30;90.10
2873;DHT22;1444;49.166;7.312;2023-06-19T12:36:09;27.40;87.60
2873;DHT22;1444;49.166;7.312;2023-06-19T12:38:39;27.40;87.90
2873;DHT22;1444;49.166;7.312;2023-06-19T12:41:06;27.40;87.70
2873;DHT22;1444;49.166;7.312;2023-06-19T12:43:33;27.50;88.10
2873;DHT22;1444;49.166;7.312;2023-06-19T12:46:00;27.60;87.30
2873;DHT22;1444;49.166;7.312;2023-06-19T12:48:27;27.60;87.50
2873;DHT22;1444;49.166;7.312;2023-06-19T12:50:53;27.60;86.90
2873;DHT22;1444;49.166;7.312;2023-06-19T12:53:20;27.60;87.40
2873;DHT22;1444;49.166;7.312;2023-06-19T12:55:53;27.50;88.10
2873;DHT22;1444;49.166;7.312;2023-06-19T12:58:20;27.60;89.40
2873;DHT22;1444;49.166;7.312;2023-06-19T13:00:46;27.50;89.80
2873;DHT22;1444;49.166;7.312;2023-06-19T13:03:13;27.40;89.30
2873;DHT22;1444;49.166;7.312;2023-06-19T13:05:40;27.40;88.80
2873;DHT22;1444;49.166;7.312;2023-06-19T13:08:07;27.50;88.90
2873;DHT22;1444;49.166;7.312;2023-06-19T13:10:34;27.50;89.70
2873;DHT22;1444;49.166;7.312;2023-06-19T13:13:02;27.80;90.20
2873;DHT22;1444;49.166;7.312;2023-06-19T13:15:30;28.00;90.00
2873;DHT22;1444;49.166;7.312;2023-06-19T13:17:59;28.10;88.60
2873;DHT22;1444;49.166;7.312;2023-06-19T13:20:26;28.30;88.60
2873;DHT22;1444;49.166;7.312;2023-06-19T13:22:52;28.40;87.40
2873;DHT22;1444;49.166;7.312;2023-06-19T13:25:19;28.50;87.70
2873;DHT22;1444;49.166;7.312;2023-06-19T13:27:46;28.60;86.30
2873;DHT22;1444;49.166;7.312;2023-06-19T13:30:14;28.60;84.60
2873;DHT22;1444;49.166;7.312;2023-06-19T13:32:41;28.70;85.50
2873;DHT22;1444;49.166;7.312;2023-06-19T13:35:08;28.90;84.20
2873;DHT22;1444;49.166;7.312;2023-06-19T13:37:36;29.10;86.10
2873;DHT22;1444;49.166;7.312;2023-06-19T13:40:05;29.10;86.20
2873;DHT22;1444;49.166;7.312;2023-06-19T13:42:32;29.20;85.00
2873;DHT22;1444;49.166;7.312;2023-06-19T13:45:01;29.10;83.60
2873;DHT22;1444;49.166;7.312;2023-06-19T13:49:56;29.20;81.10
2873;DHT22;1444;49.166;7.312;2023-06-19T13:52:23;29.10;81.40
2873;DHT22;1444;49.166;7.312;2023-06-19T13:57:17;28.90;80.50
2873;DHT22;1444;49.166;7.312;2023-06-19T13:59:44;29.00;82.10
2873;DHT22;1444;49.166;7.312;2023-06-19T14:04:39;29.40;84.50
2873;DHT22;1444;49.166;7.312;2023-06-19T14:07:07;29.30;80.40
2873;DHT22;1444;49.166;7.312;2023-06-19T14:09:34;29.30;80.70
2873;DHT22;1444;49.166;7.312;2023-06-19T14:12:01;29.30;81.60
2873;DHT22;1444;49.166;7.312;2023-06-19T14:14:27;29.30;79.00
2873;DHT22;1444;49.166;7.312;2023-06-19T14:16:54;29.30;81.40
2873;DHT22;1444;49.166;7.312;2023-06-19T14:19:23;29.30;81.00
2873;DHT22;1444;49.166;7.312;2023-06-19T14:21:51;29.30;80.80
2873;DHT22;1444;49.166;7.312;2023-06-19T14:24:18;29.30;80.50
2873;DHT22;1444;49.166;7.312;2023-06-19T14:26:45;29.20;81.10
2873;DHT22;1444;49.166;7.312;2023-06-19T14:29:11;29.20;80.90
2873;DHT22;1444;49.166;7.312;2023-06-19T14:31:40;29.10;82.00
2873;DHT22;1444;49.166;7.312;2023-06-19T14:34:07;29.20;81.70
2873;DHT22;1444;49.166;7.312;2023-06-19T14:36:34;29.30;80.10
2873;DHT22;1444;49.166;7.312;2023-06-19T14:39:02;29.70;82.70
2873;DHT22;1444;49.166;7.312;2023-06-19T14:41:29;29.80;82.50
2873;DHT22;1444;49.166;7.312;2023-06-19T14:43:57;29.80;79.50
2873;DHT22;1444;49.166;7.312;2023-06-19T14:46:23;29.80;79.70
2873;DHT22;1444;49.166;7.312;2023-06-19T14:48:51;30.00;80.20
2873;DHT22;1444;49.166;7.312;2023-06-19T14:51:17;30.20;79.40
2873;DHT22;1444;49.166;7.312;2023-06-19T14:53:44;30.60;82.00
2873;DHT22;1444;49.166;7.312;2023-06-19T14:56:12;30.90;78.30
2873;DHT22;1444;49.166;7.312;2023-06-19T14:58:39;30.90;77.30
2873;DHT22;1444;49.166;7.312;2023-06-19T15:01:06;30.40;75.90
2873;DHT22;1444;49.166;7.312;2023-06-19T15:03:33;29.90;77.10
2873;DHT22;1444;49.166;7.312;2023-06-19T15:06:00;29.90;77.20
2873;DHT22;1444;49.166;7.312;2023-06-19T15:08:26;29.60;77.70
2873;DHT22;1444;49.166;7.312;2023-06-19T15:10:53;29.60;79.70
2873;DHT22;1444;49.166;7.312;2023-06-19T15:13:21;29.60;79.80
2873;DHT22;1444;49.166;7.312;2023-06-19T15:15:48;29.70;80.50
2873;DHT22;1444;49.166;7.312;2023-06-19T15:18:16;29.70;79.70
2873;DHT22;1444;49.166;7.312;2023-06-19T15:20:43;29.60;78.30
2873;DHT22;1444;49.166;7.312;2023-06-19T15:23:10;29.80;79.00
2873;DHT22;1444;49.166;7.312;2023-06-19T15:25:37;29.80;79.30
2873;DHT22;1444;49.166;7.312;2023-06-19T15:28:04;29.70;78.30
2873;DHT22;1444;49.166;7.312;2023-06-19T15:30:32;29.60;78.30
2873;DHT22;1444;49.166;7.312;2023-06-19T15:32:58;29.70;77.60
2873;DHT22;1444;49.166;7.312;2023-06-19T15:35:25;29.70;77.60
2873;DHT22;1444;49.166;7.312;2023-06-19T15:37:52;29.70;77.70
2873;DHT22;1444;49.166;7.312;2023-06-19T15:40:23;29.80;78.80
2873;DHT22;1444;49.166;7.312;2023-06-19T15:42:50;30.00;80.70
2873;DHT22;1444;49.166;7.312;2023-06-19T15:45:17;30.00;79.30
2873;DHT22;1444;49.166;7.312;2023-06-19T15:47:45;29.80;78.30
2873;DHT22;1444;49.166;7.312;2023-06-19T15:50:12;29.50;78.50
2873;DHT22;1444;49.166;7.312;2023-06-19T15:52:39;29.30;81.40
2873;DHT22;1444;49.166;7.312;2023-06-19T15:55:07;29.30;82.00
2873;DHT22;1444;49.166;7.312;2023-06-19T15:57:33;29.10;80.00
2873;DHT22;1444;49.166;7.312;2023-06-19T16:00:01;28.90;79.80
2873;DHT22;1444;49.166;7.312;2023-06-19T16:02:30;28.90;80.90
2873;DHT22;1444;49.166;7.312;2023-06-19T16:04:58;29.10;80.90
2873;DHT22;1444;49.166;7.312;2023-06-19T16:07:25;29.20;79.80
2873;DHT22;1444;49.166;7.312;2023-06-19T16:09:52;29.40;81.00
2873;DHT22;1444;49.166;7.312;2023-06-19T16:12:19;29.60;80.20
2873;DHT22;1444;49.166;7.312;2023-06-19T16:14:45;29.80;81.00
2873;DHT22;1444;49.166;7.312;2023-06-19T16:17:12;29.90;81.10
2873;DHT22;1444;49.166;7.312;2023-06-19T16:19:39;30.00;80.40
2873;DHT22;1444;49.166;7.312;2023-06-19T16:22:07;30.00;79.40
2873;DHT22;1444;49.166;7.312;2023-06-19T16:24:36;30.10;79.90
2873;DHT22;1444;49.166;7.312;2023-06-19T16:27:04;30.20;81.10